Dessau Airport


Codes: EDAD/
Name: Dessau Airport
City: Dessau
Country: Germany
Elevation: 187 ft.

Photos at Dessau Airport


   Photos courtesy of SpottingLog. You can add your own sightings and photos by signing up for a free trial today.



No photos found.

Weather at Dessau Airport


Time (UTC)DescriptionTempratureWindCloud coverageVisibilityPressureHumidity
18-Apr-2024 00:00Overcast Clouds6°C2 mph, NE89%10000m1011hPa86%
18-Apr-2024 03:00Broken Clouds4°C4 mph, N84%10000m1012hPa90%
18-Apr-2024 06:00Broken Clouds4°C7 mph, N81%10000m1014hPa84%
18-Apr-2024 09:00Clear Sky9°C7 mph, N9%10000m1016hPa50%
18-Apr-2024 12:00Scattered Clouds11°C9 mph, NW30%10000m1016hPa43%
18-Apr-2024 15:00Overcast Clouds11°C7 mph, NW93%10000m1016hPa43%
18-Apr-2024 18:00Broken Clouds7°C7 mph, W69%10000m1016hPa68%
18-Apr-2024 21:00Broken Clouds4°C7 mph, W74%10000m1017hPa84%
19-Apr-2024 00:00Light Rain4°C7 mph, SW83%10000m1015hPa84%
19-Apr-2024 03:00Light Rain4°C7 mph, SW100%10000m1013hPa85%
19-Apr-2024 06:00Light Rain6°C13 mph, SW100%10000m1010hPa80%
19-Apr-2024 09:00Light Rain5°C20 mph, SW100%9667m1007hPa92%
19-Apr-2024 12:00Light Rain6°C16 mph, SW100%10000m1004hPa91%
19-Apr-2024 15:00Light Rain7°C16 mph, SW100%10000m1003hPa88%
19-Apr-2024 18:00Light Rain6°C9 mph, W100%10000m1003hPa87%
19-Apr-2024 21:00Broken Clouds3°C7 mph, W55%10000m1005hPa93%
20-Apr-2024 00:00Light Rain5°C2 mph, W74%10000m1005hPa96%
20-Apr-2024 03:00Light Rain4°C11 mph, NW100%10000m1008hPa96%
20-Apr-2024 06:00Light Rain4°C16 mph, N100%0m1013hPa97%
20-Apr-2024 09:00Light Rain6°C16 mph, N99%10000m1016hPa77%
20-Apr-2024 12:00Light Rain8°C13 mph, N99%10000m1018hPa51%
20-Apr-2024 15:00Overcast Clouds9°C13 mph, N100%10000m1020hPa43%
20-Apr-2024 18:00Overcast Clouds5°C7 mph, NE91%10000m1021hPa68%
20-Apr-2024 21:00Overcast Clouds2°C7 mph, E90%10000m1023hPa78%
21-Apr-2024 00:00Overcast Clouds0°C4 mph, E95%10000m1024hPa82%
21-Apr-2024 03:00Overcast Clouds-1°C4 mph, E100%10000m1025hPa83%
21-Apr-2024 06:00Overcast Clouds2°C4 mph, NE95%10000m1026hPa69%
21-Apr-2024 09:00Overcast Clouds7°C9 mph, NE100%10000m1026hPa50%
21-Apr-2024 12:00Overcast Clouds9°C11 mph, NE100%10000m1025hPa41%
21-Apr-2024 15:00Overcast Clouds8°C11 mph, NE100%10000m1025hPa45%
21-Apr-2024 18:00Light Rain4°C7 mph, NE96%10000m1026hPa69%
21-Apr-2024 21:00Clear Sky0°C7 mph, NE8%10000m1027hPa82%
22-Apr-2024 00:00Few Clouds-2°C7 mph, N11%10000m1027hPa91%
22-Apr-2024 03:00Few Clouds-2°C4 mph, N16%10000m1027hPa95%
22-Apr-2024 06:00Few Clouds2°C7 mph, N14%10000m1027hPa83%
22-Apr-2024 09:00Broken Clouds6°C9 mph, N56%8688m1026hPa73%
22-Apr-2024 12:00Broken Clouds4°C4 mph, N78%5956m1026hPa94%
22-Apr-2024 15:00Overcast Clouds8°C4 mph, NE100%10000m1025hPa68%
22-Apr-2024 18:00Light Rain6°C9 mph, NE100%10000m1024hPa77%
22-Apr-2024 21:00Broken Clouds2°C7 mph, NE75%10000m1025hPa89%